sensor_id;sensor_type;location;lat;lon;timestamp;pressure;altitude;pressure_sealevel;temperature;humidity
72336;BME280;65062;48.446;8.834;2023-06-14T00:00:34;97041.81;;;9.98;71.59
72336;BME280;65062;48.446;8.834;2023-06-14T00:03:35;97036.44;;;10.06;70.57
72336;BME280;65062;48.446;8.834;2023-06-14T00:06:35;97035.50;;;10.14;70.37
72336;BME280;65062;48.446;8.834;2023-06-14T00:09:35;97049.53;;;10.06;71.59
72336;BME280;65062;48.446;8.834;2023-06-14T00:12:38;97043.94;;;9.82;72.91
72336;BME280;65062;48.446;8.834;2023-06-14T00:15:39;97040.03;;;9.71;72.99
72336;BME280;65062;48.446;8.834;2023-06-14T00:18:39;97045.19;;;9.65;73.51
72336;BME280;65062;48.446;8.834;2023-06-14T00:21:40;97037.91;;;9.54;74.22
72336;BME280;65062;48.446;8.834;2023-06-14T00:24:40;97047.13;;;9.50;74.40
72336;BME280;65062;48.446;8.834;2023-06-14T00:27:40;97038.00;;;9.39;74.39
72336;BME280;65062;48.446;8.834;2023-06-14T00:30:41;97038.97;;;9.38;74.60
72336;BME280;65062;48.446;8.834;2023-06-14T00:33:41;97036.56;;;9.64;73.63
72336;BME280;65062;48.446;8.834;2023-06-14T00:36:42;97038.78;;;9.40;74.33
72336;BME280;65062;48.446;8.834;2023-06-14T00:39:42;97033.63;;;9.25;74.82
72336;BME280;65062;48.446;8.834;2023-06-14T00:42:42;97029.88;;;9.28;75.49
72336;BME280;65062;48.446;8.834;2023-06-14T00:45:43;97038.63;;;9.20;76.04
72336;BME280;65062;48.446;8.834;2023-06-14T00:48:44;97038.88;;;9.04;75.67
72336;BME280;65062;48.446;8.834;2023-06-14T00:51:45;97051.91;;;8.83;76.74
72336;BME280;65062;48.446;8.834;2023-06-14T00:54:46;97049.34;;;8.69;77.25
72336;BME280;65062;48.446;8.834;2023-06-14T00:57:47;97044.47;;;8.80;77.80
72336;BME280;65062;48.446;8.834;2023-06-14T01:00:48;97050.41;;;8.74;78.16
72336;BME280;65062;48.446;8.834;2023-06-14T01:03:48;97055.00;;;8.72;78.19
72336;BME280;65062;48.446;8.834;2023-06-14T01:07:02;97052.72;;;8.84;77.70
72336;BME280;65062;48.446;8.834;2023-06-14T01:10:37;97048.84;;;8.59;77.45
72336;BME280;65062;48.446;8.834;2023-06-14T01:13:44;97047.75;;;8.53;78.40
72336;BME280;65062;48.446;8.834;2023-06-14T01:16:46;97043.53;;;8.52;79.93
72336;BME280;65062;48.446;8.834;2023-06-14T01:19:47;97046.41;;;8.57;77.97
72336;BME280;65062;48.446;8.834;2023-06-14T01:22:51;97051.09;;;8.62;79.23
72336;BME280;65062;48.446;8.834;2023-06-14T01:25:52;97046.28;;;8.44;79.11
72336;BME280;65062;48.446;8.834;2023-06-14T01:28:55;97043.00;;;8.57;79.63
72336;BME280;65062;48.446;8.834;2023-06-14T01:32:01;97047.78;;;8.38;79.63
72336;BME280;65062;48.446;8.834;2023-06-14T01:35:02;97048.22;;;8.57;78.99
72336;BME280;65062;48.446;8.834;2023-06-14T01:38:04;97049.44;;;8.39;79.92
72336;BME280;65062;48.446;8.834;2023-06-14T01:41:06;97053.19;;;8.37;80.10
72336;BME280;65062;48.446;8.834;2023-06-14T01:44:07;97050.69;;;8.29;80.24
72336;BME280;65062;48.446;8.834;2023-06-14T01:47:08;97050.94;;;8.19;80.09
72336;BME280;65062;48.446;8.834;2023-06-14T01:50:09;97048.13;;;8.21;79.70
72336;BME280;65062;48.446;8.834;2023-06-14T01:53:10;97047.25;;;8.14;80.32
72336;BME280;65062;48.446;8.834;2023-06-14T01:56:10;97043.81;;;8.13;81.38
72336;BME280;65062;48.446;8.834;2023-06-14T01:59:11;97051.66;;;7.99;81.03
72336;BME280;65062;48.446;8.834;2023-06-14T02:02:12;97046.00;;;7.95;81.03
72336;BME280;65062;48.446;8.834;2023-06-14T02:05:12;97051.13;;;8.03;82.23
72336;BME280;65062;48.446;8.834;2023-06-14T02:08:12;97054.91;;;8.15;81.34
72336;BME280;65062;48.446;8.834;2023-06-14T02:11:13;97056.44;;;7.95;81.88
72336;BME280;65062;48.446;8.834;2023-06-14T02:14:13;97058.59;;;7.92;82.75
72336;BME280;65062;48.446;8.834;2023-06-14T02:17:14;97053.72;;;7.89;81.34
72336;BME280;65062;48.446;8.834;2023-06-14T02:20:16;97060.53;;;8.04;81.67
72336;BME280;65062;48.446;8.834;2023-06-14T02:23:17;97063.16;;;7.90;81.34
72336;BME280;65062;48.446;8.834;2023-06-14T02:26:17;97056.88;;;7.99;81.66
72336;BME280;65062;48.446;8.834;2023-06-14T02:29:18;97056.25;;;8.11;80.69
72336;BME280;65062;48.446;8.834;2023-06-14T02:32:18;97046.81;;;7.96;81.08
72336;BME280;65062;48.446;8.834;2023-06-14T02:35:18;97057.22;;;7.96;81.99
72336;BME280;65062;48.446;8.834;2023-06-14T02:38:20;97057.50;;;7.72;82.42
72336;BME280;65062;48.446;8.834;2023-06-14T02:41:21;97058.22;;;7.66;83.41
72336;BME280;65062;48.446;8.834;2023-06-14T02:44:24;97050.28;;;7.74;81.59
72336;BME280;65062;48.446;8.834;2023-06-14T02:47:26;97045.38;;;7.64;81.91
72336;BME280;65062;48.446;8.834;2023-06-14T02:50:27;97051.66;;;7.70;82.96
72336;BME280;65062;48.446;8.834;2023-06-14T02:53:28;97043.34;;;7.52;83.15
72336;BME280;65062;48.446;8.834;2023-06-14T02:56:29;97048.19;;;7.40;84.22
72336;BME280;65062;48.446;8.834;2023-06-14T02:59:29;97047.72;;;7.37;83.73
72336;BME280;65062;48.446;8.834;2023-06-14T03:02:30;97048.78;;;7.28;84.04
72336;BME280;65062;48.446;8.834;2023-06-14T03:05:30;97056.66;;;7.20;84.19
72336;BME280;65062;48.446;8.834;2023-06-14T03:08:31;97060.41;;;7.17;85.09
72336;BME280;65062;48.446;8.834;2023-06-14T03:11:33;97062.41;;;7.30;84.96
72336;BME280;65062;48.446;8.834;2023-06-14T03:14:33;97059.66;;;7.31;84.92
72336;BME280;65062;48.446;8.834;2023-06-14T03:17:34;97064.41;;;7.28;85.07
72336;BME280;65062;48.446;8.834;2023-06-14T03:20:38;97063.63;;;7.19;85.53
72336;BME280;65062;48.446;8.834;2023-06-14T03:23:39;97068.91;;;7.34;84.23
72336;BME280;65062;48.446;8.834;2023-06-14T03:26:39;97074.66;;;7.29;83.89
72336;BME280;65062;48.446;8.834;2023-06-14T03:29:40;97069.91;;;7.10;84.35
72336;BME280;65062;48.446;8.834;2023-06-14T03:32:41;97072.91;;;6.99;84.13
72336;BME280;65062;48.446;8.834;2023-06-14T03:35:41;97079.50;;;7.10;84.60
72336;BME280;65062;48.446;8.834;2023-06-14T03:38:41;97082.09;;;7.10;84.60
72336;BME280;65062;48.446;8.834;2023-06-14T03:41:42;97078.59;;;7.03;84.72
72336;BME280;65062;48.446;8.834;2023-06-14T03:44:42;97086.75;;;7.00;85.20
72336;BME280;65062;48.446;8.834;2023-06-14T03:47:42;97089.78;;;7.03;86.51
72336;BME280;65062;48.446;8.834;2023-06-14T03:50:43;97092.34;;;7.11;86.20
72336;BME280;65062;48.446;8.834;2023-06-14T03:53:44;97100.31;;;7.10;85.98
72336;BME280;65062;48.446;8.834;2023-06-14T03:56:45;97098.47;;;7.18;84.92
72336;BME280;65062;48.446;8.834;2023-06-14T03:59:46;97094.00;;;7.27;84.99
72336;BME280;65062;48.446;8.834;2023-06-14T04:02:47;97103.09;;;7.31;85.17
72336;BME280;65062;48.446;8.834;2023-06-14T04:05:47;97107.59;;;7.37;84.64
72336;BME280;65062;48.446;8.834;2023-06-14T04:08:49;97109.00;;;7.25;85.04
72336;BME280;65062;48.446;8.834;2023-06-14T04:11:51;97115.59;;;7.35;84.07
72336;BME280;65062;48.446;8.834;2023-06-14T04:14:52;97117.72;;;7.32;84.78
72336;BME280;65062;48.446;8.834;2023-06-14T04:17:52;97113.25;;;7.40;84.70
72336;BME280;65062;48.446;8.834;2023-06-14T04:20:57;97123.09;;;7.53;83.58
72336;BME280;65062;48.446;8.834;2023-06-14T04:23:57;97127.16;;;7.33;83.54
72336;BME280;65062;48.446;8.834;2023-06-14T04:26:58;97117.38;;;7.35;84.57
72336;BME280;65062;48.446;8.834;2023-06-14T04:29:59;97131.38;;;7.34;85.16
72336;BME280;65062;48.446;8.834;2023-06-14T04:33:02;97125.81;;;7.37;84.47
72336;BME280;65062;48.446;8.834;2023-06-14T04:36:05;97129.09;;;7.53;83.60
72336;BME280;65062;48.446;8.834;2023-06-14T04:39:07;97129.84;;;7.62;82.66
72336;BME280;65062;48.446;8.834;2023-06-14T04:42:08;97133.25;;;7.62;82.61
72336;BME280;65062;48.446;8.834;2023-06-14T04:45:08;97137.03;;;7.60;82.59
72336;BME280;65062;48.446;8.834;2023-06-14T04:48:09;97143.41;;;7.57;83.46
72336;BME280;65062;48.446;8.834;2023-06-14T04:51:10;97143.19;;;7.59;82.72
72336;BME280;65062;48.446;8.834;2023-06-14T04:54:11;97146.00;;;7.57;83.73
72336;BME280;65062;48.446;8.834;2023-06-14T04:57:14;97143.03;;;7.60;83.01
72336;BME280;65062;48.446;8.834;2023-06-14T05:00:17;97141.38;;;7.67;82.55
72336;BME280;65062;48.446;8.834;2023-06-14T05:03:18;97146.53;;;7.90;82.27
72336;BME280;65062;48.446;8.834;2023-06-14T05:06:18;97149.25;;;7.96;82.37
72336;BME280;65062;48.446;8.834;2023-06-14T05:09:19;97148.63;;;8.09;81.57
72336;BME280;65062;48.446;8.834;2023-06-14T05:12:19;97150.47;;;8.23;81.17
72336;BME280;65062;48.446;8.834;2023-06-14T05:15:20;97148.09;;;8.13;81.62
72336;BME280;65062;48.446;8.834;2023-06-14T05:18:25;97148.75;;;8.30;80.73
72336;BME280;65062;48.446;8.834;2023-06-14T05:21:25;97145.25;;;8.37;80.73
72336;BME280;65062;48.446;8.834;2023-06-14T05:24:26;97150.13;;;8.40;80.05
72336;BME280;65062;48.446;8.834;2023-06-14T05:27:26;97152.53;;;8.42;80.04
72336;BME280;65062;48.446;8.834;2023-06-14T05:30:27;97146.88;;;8.53;80.16
72336;BME280;65062;48.446;8.834;2023-06-14T05:33:30;97151.81;;;8.63;80.07
72336;BME280;65062;48.446;8.834;2023-06-14T05:36:31;97148.91;;;8.72;79.13
72336;BME280;65062;48.446;8.834;2023-06-14T05:39:32;97154.69;;;8.82;79.34
72336;BME280;65062;48.446;8.834;2023-06-14T05:42:32;97151.16;;;8.90;79.29
72336;BME280;65062;48.446;8.834;2023-06-14T05:45:33;97158.41;;;9.09;78.27
72336;BME280;65062;48.446;8.834;2023-06-14T05:48:33;97154.94;;;9.23;77.69
72336;BME280;65062;48.446;8.834;2023-06-14T05:51:34;97150.03;;;9.34;76.92
72336;BME280;65062;48.446;8.834;2023-06-14T05:54:35;97159.34;;;9.43;76.10
72336;BME280;65062;48.446;8.834;2023-06-14T05:57:35;97152.28;;;9.58;75.82
72336;BME280;65062;48.446;8.834;2023-06-14T06:00:36;97150.78;;;9.70;76.21
72336;BME280;65062;48.446;8.834;2023-06-14T06:03:36;97151.31;;;9.87;76.19
72336;BME280;65062;48.446;8.834;2023-06-14T06:06:37;97148.63;;;10.01;76.62
72336;BME280;65062;48.446;8.834;2023-06-14T06:09:37;97156.22;;;10.17;76.28
72336;BME280;65062;48.446;8.834;2023-06-14T06:12:38;97154.06;;;10.27;75.17
72336;BME280;65062;48.446;8.834;2023-06-14T06:15:38;97155.41;;;10.51;74.22
72336;BME280;65062;48.446;8.834;2023-06-14T06:18:38;97155.91;;;10.68;73.47
72336;BME280;65062;48.446;8.834;2023-06-14T06:21:39;97157.38;;;10.83;72.55
72336;BME280;65062;48.446;8.834;2023-06-14T06:24:39;97165.53;;;11.01;71.58
72336;BME280;65062;48.446;8.834;2023-06-14T06:27:40;97164.38;;;11.23;71.15
72336;BME280;65062;48.446;8.834;2023-06-14T06:30:40;97173.28;;;11.42;70.33
72336;BME280;65062;48.446;8.834;2023-06-14T06:33:40;97169.91;;;11.61;70.25
72336;BME280;65062;48.446;8.834;2023-06-14T06:36:41;97175.59;;;11.84;69.84
72336;BME280;65062;48.446;8.834;2023-06-14T06:39:42;97171.38;;;12.02;67.96
72336;BME280;65062;48.446;8.834;2023-06-14T06:42:43;97176.00;;;12.20;67.51
72336;BME280;65062;48.446;8.834;2023-06-14T06:45:44;97174.59;;;12.30;67.78
72336;BME280;65062;48.446;8.834;2023-06-14T06:48:44;97174.97;;;12.47;66.34
72336;BME280;65062;48.446;8.834;2023-06-14T06:51:59;97176.72;;;12.73;66.80
72336;BME280;65062;48.446;8.834;2023-06-14T06:54:59;97186.19;;;12.87;65.72
72336;BME280;65062;48.446;8.834;2023-06-14T06:58:00;97178.66;;;13.03;65.33
72336;BME280;65062;48.446;8.834;2023-06-14T07:01:01;97178.44;;;13.11;64.22
72336;BME280;65062;48.446;8.834;2023-06-14T07:04:01;97171.16;;;13.57;64.17
72336;BME280;65062;48.446;8.834;2023-06-14T07:07:03;97170.06;;;13.65;63.81
72336;BME280;65062;48.446;8.834;2023-06-14T07:10:04;97177.06;;;13.77;62.46
72336;BME280;65062;48.446;8.834;2023-06-14T07:13:05;97172.22;;;14.05;62.10
72336;BME280;65062;48.446;8.834;2023-06-14T07:16:05;97182.34;;;14.33;59.85
72336;BME280;65062;48.446;8.834;2023-06-14T07:19:06;97180.41;;;14.64;58.07
72336;BME280;65062;48.446;8.834;2023-06-14T07:22:06;97180.50;;;14.76;59.78
72336;BME280;65062;48.446;8.834;2023-06-14T07:25:08;97191.56;;;15.03;60.25
72336;BME280;65062;48.446;8.834;2023-06-14T07:28:09;97185.97;;;15.29;58.28
72336;BME280;65062;48.446;8.834;2023-06-14T07:31:09;97187.13;;;15.51;57.02
72336;BME280;65062;48.446;8.834;2023-06-14T07:34:10;97179.16;;;15.69;54.56
72336;BME280;65062;48.446;8.834;2023-06-14T07:37:10;97178.78;;;15.95;52.95
72336;BME280;65062;48.446;8.834;2023-06-14T07:40:11;97183.56;;;16.62;48.92
72336;BME280;65062;48.446;8.834;2023-06-14T07:43:11;97184.56;;;16.84;48.57
72336;BME280;65062;48.446;8.834;2023-06-14T07:46:12;97177.56;;;17.01;47.80
72336;BME280;65062;48.446;8.834;2023-06-14T07:49:13;97187.16;;;17.19;48.31
72336;BME280;65062;48.446;8.834;2023-06-14T07:52:13;97186.06;;;17.54;47.87
72336;BME280;65062;48.446;8.834;2023-06-14T07:55:14;97195.19;;;17.63;46.50
72336;BME280;65062;48.446;8.834;2023-06-14T07:58:15;97194.38;;;17.91;46.03
72336;BME280;65062;48.446;8.834;2023-06-14T08:01:15;97182.03;;;17.96;45.54
72336;BME280;65062;48.446;8.834;2023-06-14T08:04:16;97190.63;;;18.20;44.39
72336;BME280;65062;48.446;8.834;2023-06-14T08:07:17;97184.69;;;18.13;45.42
72336;BME280;65062;48.446;8.834;2023-06-14T08:10:17;97188.47;;;18.17;45.17
72336;BME280;65062;48.446;8.834;2023-06-14T08:13:18;97187.75;;;18.54;44.79
72336;BME280;65062;48.446;8.834;2023-06-14T08:16:18;97193.78;;;18.66;43.25
72336;BME280;65062;48.446;8.834;2023-06-14T08:19:20;97186.72;;;18.72;44.28
72336;BME280;65062;48.446;8.834;2023-06-14T08:22:21;97182.25;;;18.94;45.11
72336;BME280;65062;48.446;8.834;2023-06-14T08:25:22;97190.94;;;19.11;44.93
72336;BME280;65062;48.446;8.834;2023-06-14T08:28:24;97189.63;;;19.30;43.30
72336;BME280;65062;48.446;8.834;2023-06-14T08:31:24;97193.09;;;19.31;43.29
72336;BME280;65062;48.446;8.834;2023-06-14T08:34:25;97196.53;;;19.31;42.00
72336;BME280;65062;48.446;8.834;2023-06-14T08:37:26;97195.31;;;19.65;42.14
72336;BME280;65062;48.446;8.834;2023-06-14T08:40:29;97203.19;;;19.82;41.16
72336;BME280;65062;48.446;8.834;2023-06-14T08:43:30;97199.94;;;20.01;41.16
72336;BME280;65062;48.446;8.834;2023-06-14T08:46:32;97196.94;;;20.19;40.86
72336;BME280;65062;48.446;8.834;2023-06-14T08:49:36;97207.69;;;20.34;40.98
72336;BME280;65062;48.446;8.834;2023-06-14T08:52:38;97205.03;;;20.34;39.91
72336;BME280;65062;48.446;8.834;2023-06-14T08:55:49;97201.16;;;20.47;39.28
72336;BME280;65062;48.446;8.834;2023-06-14T08:58:50;97209.13;;;20.47;39.69
72336;BME280;65062;48.446;8.834;2023-06-14T09:01:51;97193.66;;;20.39;39.68
72336;BME280;65062;48.446;8.834;2023-06-14T09:04:52;97199.72;;;20.66;40.77
72336;BME280;65062;48.446;8.834;2023-06-14T09:07:54;97195.31;;;20.87;39.54
72336;BME280;65062;48.446;8.834;2023-06-14T09:10:56;97210.06;;;21.04;39.38
72336;BME280;65062;48.446;8.834;2023-06-14T09:13:57;97202.09;;;21.04;38.65
72336;BME280;65062;48.446;8.834;2023-06-14T09:16:58;97206.84;;;20.97;38.06
72336;BME280;65062;48.446;8.834;2023-06-14T09:19:58;97206.09;;;21.07;37.54
72336;BME280;65062;48.446;8.834;2023-06-14T09:23:00;97203.47;;;21.12;37.25
72336;BME280;65062;48.446;8.834;2023-06-14T09:26:06;97215.03;;;21.42;37.81
72336;BME280;65062;48.446;8.834;2023-06-14T09:29:07;97218.00;;;21.51;37.68
72336;BME280;65062;48.446;8.834;2023-06-14T09:32:09;97214.56;;;21.55;36.84
72336;BME280;65062;48.446;8.834;2023-06-14T09:35:09;97209.53;;;21.69;36.44
72336;BME280;65062;48.446;8.834;2023-06-14T09:38:10;97204.78;;;21.76;34.99
72336;BME280;65062;48.446;8.834;2023-06-14T09:41:10;97213.59;;;21.76;35.10
72336;BME280;65062;48.446;8.834;2023-06-14T09:44:11;97206.69;;;21.85;35.27
72336;BME280;65062;48.446;8.834;2023-06-14T09:47:12;97199.00;;;22.04;34.10
72336;BME280;65062;48.446;8.834;2023-06-14T09:50:12;97200.31;;;22.16;33.12
72336;BME280;65062;48.446;8.834;2023-06-14T09:53:13;97195.78;;;22.37;33.27
72336;BME280;65062;48.446;8.834;2023-06-14T09:56:15;97203.25;;;22.30;31.44
72336;BME280;65062;48.446;8.834;2023-06-14T09:59:22;97204.31;;;22.49;32.25
72336;BME280;65062;48.446;8.834;2023-06-14T10:02:36;97189.16;;;22.65;31.75
72336;BME280;65062;48.446;8.834;2023-06-14T10:05:38;97189.94;;;22.65;30.65
72336;BME280;65062;48.446;8.834;2023-06-14T10:08:40;97189.69;;;22.72;29.80
72336;BME280;65062;48.446;8.834;2023-06-14T10:11:40;97193.38;;;22.91;29.38
72336;BME280;65062;48.446;8.834;2023-06-14T10:14:44;97190.97;;;22.84;29.98
72336;BME280;65062;48.446;8.834;2023-06-14T10:17:59;97202.72;;;22.88;30.55
72336;BME280;65062;48.446;8.834;2023-06-14T10:24:17;97187.97;;;23.11;31.25
72336;BME280;65062;48.446;8.834;2023-06-14T10:27:19;97200.22;;;23.22;30.97
72336;BME280;65062;48.446;8.834;2023-06-14T10:30:26;97203.59;;;23.52;29.92
72336;BME280;65062;48.446;8.834;2023-06-14T10:33:27;97206.00;;;23.54;28.88
72336;BME280;65062;48.446;8.834;2023-06-14T10:36:30;97202.56;;;24.02;30.56
72336;BME280;65062;48.446;8.834;2023-06-14T10:39:33;97196.88;;;23.65;28.41
72336;BME280;65062;48.446;8.834;2023-06-14T10:42:36;97195.44;;;23.82;29.58
72336;BME280;65062;48.446;8.834;2023-06-14T10:45:36;97198.06;;;23.92;29.27
72336;BME280;65062;48.446;8.834;2023-06-14T10:48:40;97202.06;;;23.95;27.75
72336;BME280;65062;48.446;8.834;2023-06-14T10:51:42;97191.59;;;24.03;29.40
72336;BME280;65062;48.446;8.834;2023-06-14T10:55:06;97195.16;;;24.56;28.97
72336;BME280;65062;48.446;8.834;2023-06-14T10:58:11;97197.53;;;24.63;28.00
72336;BME280;65062;48.446;8.834;2023-06-14T11:01:11;97199.13;;;24.97;27.37
72336;BME280;65062;48.446;8.834;2023-06-14T11:04:12;97201.41;;;25.09;26.39
72336;BME280;65062;48.446;8.834;2023-06-14T11:10:39;97192.59;;;25.32;27.46
72336;BME280;65062;48.446;8.834;2023-06-14T11:13:43;97195.63;;;25.67;28.02
72336;BME280;65062;48.446;8.834;2023-06-14T11:16:51;97202.09;;;25.66;26.71
72336;BME280;65062;48.446;8.834;2023-06-14T11:20:07;97198.22;;;25.54;26.04
72336;BME280;65062;48.446;8.834;2023-06-14T11:23:08;97202.19;;;25.98;25.33
72336;BME280;65062;48.446;8.834;2023-06-14T11:26:08;97190.63;;;26.16;25.89
72336;BME280;65062;48.446;8.834;2023-06-14T11:29:08;97195.25;;;25.74;25.67
72336;BME280;65062;48.446;8.834;2023-06-14T11:32:09;97191.59;;;25.46;26.21
72336;BME280;65062;48.446;8.834;2023-06-14T11:35:12;97183.78;;;26.10;25.58
72336;BME280;65062;48.446;8.834;2023-06-14T11:38:13;97181.91;;;26.43;25.00
72336;BME280;65062;48.446;8.834;2023-06-14T11:41:13;97183.81;;;26.75;24.26
72336;BME280;65062;48.446;8.834;2023-06-14T11:44:14;97189.94;;;27.21;23.55
72336;BME280;65062;48.446;8.834;2023-06-14T11:47:14;97182.09;;;28.58;21.78
72336;BME280;65062;48.446;8.834;2023-06-14T11:50:15;97186.19;;;29.56;19.88
72336;BME280;65062;48.446;8.834;2023-06-14T11:53:15;97188.19;;;29.98;20.79
72336;BME280;65062;48.446;8.834;2023-06-14T11:56:17;97180.19;;;30.70;18.77
72336;BME280;65062;48.446;8.834;2023-06-14T11:59:17;97173.53;;;31.30;19.15
72336;BME280;65062;48.446;8.834;2023-06-14T12:02:19;97178.69;;;33.32;17.95
72336;BME280;65062;48.446;8.834;2023-06-14T12:05:20;97175.34;;;33.99;14.96
72336;BME280;65062;48.446;8.834;2023-06-14T12:08:32;97175.72;;;33.25;17.63
72336;BME280;65062;48.446;8.834;2023-06-14T12:11:39;97174.94;;;34.37;17.06
72336;BME280;65062;48.446;8.834;2023-06-14T12:14:41;97180.56;;;35.96;15.83
72336;BME280;65062;48.446;8.834;2023-06-14T12:17:42;97172.69;;;37.08;15.08
72336;BME280;65062;48.446;8.834;2023-06-14T12:20:48;97178.63;;;37.14;13.94
72336;BME280;65062;48.446;8.834;2023-06-14T12:23:49;97179.00;;;37.35;14.06
72336;BME280;65062;48.446;8.834;2023-06-14T12:26:51;97170.38;;;37.10;12.52
72336;BME280;65062;48.446;8.834;2023-06-14T12:30:00;97177.34;;;36.66;13.67
72336;BME280;65062;48.446;8.834;2023-06-14T12:33:02;97176.75;;;38.81;12.35
72336;BME280;65062;48.446;8.834;2023-06-14T12:36:07;97175.94;;;38.48;11.89
72336;BME280;65062;48.446;8.834;2023-06-14T12:39:08;97182.41;;;38.99;12.53
72336;BME280;65062;48.446;8.834;2023-06-14T12:42:09;97168.13;;;39.70;10.79
72336;BME280;65062;48.446;8.834;2023-06-14T12:45:10;97170.94;;;40.56;10.47
72336;BME280;65062;48.446;8.834;2023-06-14T12:48:10;97179.03;;;38.43;11.04
72336;BME280;65062;48.446;8.834;2023-06-14T12:51:11;97173.72;;;37.45;12.71
72336;BME280;65062;48.446;8.834;2023-06-14T12:54:11;97172.00;;;38.12;11.64
72336;BME280;65062;48.446;8.834;2023-06-14T12:57:12;97175.78;;;38.67;11.32
72336;BME280;65062;48.446;8.834;2023-06-14T13:00:13;97173.25;;;39.79;11.24
72336;BME280;65062;48.446;8.834;2023-06-14T13:03:14;97169.41;;;39.83;10.91
72336;BME280;65062;48.446;8.834;2023-06-14T13:06:14;97169.56;;;39.50;11.98
72336;BME280;65062;48.446;8.834;2023-06-14T13:09:15;97175.81;;;41.71;9.31
72336;BME280;65062;48.446;8.834;2023-06-14T13:12:15;97176.56;;;42.00;8.93
72336;BME280;65062;48.446;8.834;2023-06-14T13:15:16;97189.56;;;41.78;9.36
72336;BME280;65062;48.446;8.834;2023-06-14T13:18:16;97179.25;;;42.21;9.96
72336;BME280;65062;48.446;8.834;2023-06-14T13:21:17;97172.78;;;43.28;8.79
72336;BME280;65062;48.446;8.834;2023-06-14T13:24:17;97180.41;;;43.06;9.14
72336;BME280;65062;48.446;8.834;2023-06-14T13:27:18;97171.84;;;40.98;9.69
72336;BME280;65062;48.446;8.834;2023-06-14T13:30:18;97172.44;;;40.32;10.33
72336;BME280;65062;48.446;8.834;2023-06-14T13:33:18;97179.69;;;41.00;9.81
72336;BME280;65062;48.446;8.834;2023-06-14T13:36:19;97184.44;;;38.39;11.41
72336;BME280;65062;48.446;8.834;2023-06-14T13:39:19;97170.34;;;37.78;12.21
72336;BME280;65062;48.446;8.834;2023-06-14T13:42:20;97175.84;;;38.70;12.61
72336;BME280;65062;48.446;8.834;2023-06-14T13:45:20;97162.75;;;40.70;11.63
72336;BME280;65062;48.446;8.834;2023-06-14T13:48:20;97164.78;;;40.87;9.54
72336;BME280;65062;48.446;8.834;2023-06-14T13:51:21;97176.94;;;40.96;10.56
72336;BME280;65062;48.446;8.834;2023-06-14T13:54:21;97169.53;;;39.46;11.21
72336;BME280;65062;48.446;8.834;2023-06-14T13:57:22;97170.97;;;40.59;10.28
72336;BME280;65062;48.446;8.834;2023-06-14T14:00:22;97173.16;;;38.74;11.00
72336;BME280;65062;48.446;8.834;2023-06-14T14:03:23;97167.28;;;39.63;10.81
72336;BME280;65062;48.446;8.834;2023-06-14T14:06:24;97164.03;;;41.07;9.75
72336;BME280;65062;48.446;8.834;2023-06-14T14:09:24;97170.06;;;42.59;9.75
72336;BME280;65062;48.446;8.834;2023-06-14T14:12:25;97165.84;;;39.79;10.69
72336;BME280;65062;48.446;8.834;2023-06-14T14:15:25;97167.16;;;40.99;10.82
72336;BME280;65062;48.446;8.834;2023-06-14T14:18:26;97173.88;;;41.51;10.39
72336;BME280;65062;48.446;8.834;2023-06-14T14:21:26;97158.38;;;42.34;8.98
72336;BME280;65062;48.446;8.834;2023-06-14T14:24:27;97173.41;;;40.99;10.49
72336;BME280;65062;48.446;8.834;2023-06-14T14:27:27;97165.53;;;42.14;9.26
72336;BME280;65062;48.446;8.834;2023-06-14T14:30:27;97158.84;;;42.94;8.96
72336;BME280;65062;48.446;8.834;2023-06-14T14:33:28;97167.56;;;41.08;10.01
72336;BME280;65062;48.446;8.834;2023-06-14T14:36:28;97167.41;;;39.80;11.41
72336;BME280;65062;48.446;8.834;2023-06-14T14:39:28;97177.19;;;38.87;12.23
72336;BME280;65062;48.446;8.834;2023-06-14T14:42:30;97170.09;;;40.38;10.23
72336;BME280;65062;48.446;8.834;2023-06-14T14:45:30;97171.09;;;41.37;10.09
72336;BME280;65062;48.446;8.834;2023-06-14T14:48:31;97173.41;;;40.92;9.60
72336;BME280;65062;48.446;8.834;2023-06-14T14:51:31;97170.56;;;40.64;10.59
72336;BME280;65062;48.446;8.834;2023-06-14T14:54:32;97160.88;;;40.91;9.75
72336;BME280;65062;48.446;8.834;2023-06-14T14:57:32;97183.28;;;41.28;9.21
72336;BME280;65062;48.446;8.834;2023-06-14T15:00:32;97173.31;;;39.82;10.71
72336;BME280;65062;48.446;8.834;2023-06-14T15:03:33;97183.06;;;39.25;11.25
72336;BME280;65062;48.446;8.834;2023-06-14T15:06:33;97179.41;;;38.45;11.86
72336;BME280;65062;48.446;8.834;2023-06-14T15:09:35;97180.75;;;38.25;11.69
72336;BME280;65062;48.446;8.834;2023-06-14T15:12:36;97180.09;;;37.30;12.78
72336;BME280;65062;48.446;8.834;2023-06-14T15:15:37;97172.22;;;37.74;13.42
72336;BME280;65062;48.446;8.834;2023-06-14T15:18:37;97180.25;;;38.49;11.78
72336;BME280;65062;48.446;8.834;2023-06-14T15:21:37;97183.06;;;39.25;11.60
72336;BME280;65062;48.446;8.834;2023-06-14T15:24:38;97178.91;;;37.54;11.88
72336;BME280;65062;48.446;8.834;2023-06-14T15:27:38;97176.34;;;37.91;12.25
72336;BME280;65062;48.446;8.834;2023-06-14T15:30:39;97180.63;;;37.88;11.68
72336;BME280;65062;48.446;8.834;2023-06-14T15:33:39;97185.09;;;37.51;12.77
72336;BME280;65062;48.446;8.834;2023-06-14T15:36:40;97182.69;;;35.71;13.68
72336;BME280;65062;48.446;8.834;2023-06-14T15:39:40;97184.50;;;36.17;13.61
72336;BME280;65062;48.446;8.834;2023-06-14T15:42:40;97177.56;;;36.39;13.53
72336;BME280;65062;48.446;8.834;2023-06-14T15:45:41;97174.44;;;35.83;13.39
72336;BME280;65062;48.446;8.834;2023-06-14T15:48:43;97170.22;;;35.86;13.65
72336;BME280;65062;48.446;8.834;2023-06-14T15:51:44;97169.50;;;35.38;13.18
72336;BME280;65062;48.446;8.834;2023-06-14T15:54:44;97177.81;;;36.30;13.50
72336;BME280;65062;48.446;8.834;2023-06-14T15:57:44;97170.63;;;37.24;13.07
72336;BME280;65062;48.446;8.834;2023-06-14T16:00:45;97161.63;;;37.46;12.74
72336;BME280;65062;48.446;8.834;2023-06-14T16:03:45;97172.06;;;36.35;13.59
72336;BME280;65062;48.446;8.834;2023-06-14T16:06:46;97183.31;;;36.15;13.88
72336;BME280;65062;48.446;8.834;2023-06-14T16:09:46;97175.00;;;36.46;13.00
72336;BME280;65062;48.446;8.834;2023-06-14T16:12:47;97184.78;;;33.29;15.30